Time;durP1;ratioP1;P1;durP2;ratioP2;P2;SDS_P1;SDS_P2;PMS_P1;PMS_P2;Temp;Humidity;BMP_temperature;BMP_pressure;BME280_temperature;BME280_humidity;BME280_pressure;Samples;Min_cycle;Max_cycle;Signal;HPM_P1;HPM_P2
2023/02/01 00:02:11;;;;;;;7.95;3.33;;;3.00;99.90;;;;;;8248258;28;20030;-80
2023/02/01 00:06:12;;;;;;;7.20;3.28;;;2.90;99.90;;;;;;8219254;28;20272;-81
2023/02/01 00:10:13;;;;;;;5.97;3.10;;;2.80;99.90;;;;;;8220929;28;20022;-81
2023/02/01 00:14:13;;;;;;;6.28;2.95;;;2.90;99.90;;;;;;8222370;28;20026;-81
2023/02/01 00:18:14;;;;;;;7.53;3.03;;;3.00;99.90;;;;;;8215748;28;20105;-81
2023/02/01 00:22:14;;;;;;;8.02;3.55;;;2.80;99.90;;;;;;8226476;28;20023;-81
2023/02/01 00:26:22;;;;;;;6.28;3.55;;;2.90;99.90;;;;;;8232065;28;20034;-81
2023/02/01 00:30:23;;;;;;;6.70;3.47;;;2.90;99.90;;;;;;8234102;28;20073;-81
2023/02/01 00:34:23;;;;;;;5.22;2.40;;;2.90;99.90;;;;;;8255189;28;20022;-80
2023/02/01 00:38:25;;;;;;;7.35;3.75;;;2.90;99.90;;;;;;8231999;28;20022;-82
2023/02/01 00:42:25;;;;;;;7.97;3.80;;;2.90;99.90;;;;;;8251857;28;20030;-81
2023/02/01 00:46:26;;;;;;;7.10;3.83;;;2.90;99.90;;;;;;8223199;28;20078;-81
2023/02/01 00:50:26;;;;;;;8.30;3.45;;;2.90;99.90;;;;;;8257575;28;20018;-81
2023/02/01 00:54:27;;;;;;;7.82;3.70;;;2.90;99.90;;;;;;8242167;28;20105;-81
2023/02/01 00:58:27;;;;;;;5.97;3.70;;;2.90;99.90;;;;;;8245247;28;20022;-81
2023/02/01 01:02:28;;;;;;;6.45;3.47;;;2.80;99.90;;;;;;8226801;28;20093;-81
2023/02/01 01:06:32;;;;;;;9.15;3.67;;;2.80;99.90;;;;;;8220566;28;20505;-81
2023/02/01 01:10:32;;;;;;;4.65;3.03;;;2.80;99.90;;;;;;8232915;28;20113;-81
2023/02/01 01:14:33;;;;;;;5.95;3.75;;;2.90;99.90;;;;;;8214537;28;20015;-81
2023/02/01 01:18:34;;;;;;;6.28;3.35;;;2.80;99.90;;;;;;8216264;28;20026;-81
2023/02/01 01:22:35;;;;;;;5.03;3.03;;;2.80;99.90;;;;;;8231869;28;20027;-81
2023/02/01 01:26:35;;;;;;;10.02;3.33;;;2.90;99.90;;;;;;8222907;28;20530;-81
2023/02/01 01:30:36;;;;;;;4.75;2.80;;;2.80;99.90;;;;;;8236086;28;20109;-81
2023/02/01 01:34:36;;;;;;;8.20;3.13;;;2.60;99.90;;;;;;8235072;28;20029;-80
2023/02/01 01:38:39;;;;;;;10.00;2.92;;;2.50;99.90;;;;;;8239709;28;20089;-81
2023/02/01 01:42:41;;;;;;;5.70;3.20;;;2.50;99.90;;;;;;8244376;28;20034;-81
2023/02/01 01:46:42;;;;;;;5.18;2.78;;;2.40;99.90;;;;;;8242664;28;20026;-81
2023/02/01 01:50:57;;;;;;;5.53;2.90;;;2.50;99.90;;;;;;8228133;28;20015;-82
2023/02/01 01:54:58;;;;;;;4.38;2.47;;;2.50;99.90;;;;;;8231251;28;20026;-82
2023/02/01 01:59:00;;;;;;;4.97;2.58;;;2.40;99.90;;;;;;8236152;28;20033;-81
2023/02/01 02:03:08;;;;;;;5.25;3.22;;;2.30;99.90;;;;;;8248162;28;20058;-81
2023/02/01 02:07:17;;;;;;;6.00;2.65;;;2.40;99.90;;;;;;8220575;28;20310;-81
2023/02/01 02:11:17;;;;;;;5.90;3.33;;;2.40;99.90;;;;;;8221265;28;20025;-81
2023/02/01 02:15:18;;;;;;;5.97;3.20;;;2.30;99.90;;;;;;8220293;28;20121;-81
2023/02/01 02:19:44;;;;;;;7.32;3.08;;;2.00;99.90;;;;;;8229957;28;20053;-80
2023/02/01 02:24:04;;;;;;;6.07;3.08;;;1.80;99.90;;;;;;8249990;28;20027;-80
2023/02/01 02:28:40;;;;;;;4.90;2.03;;;1.80;99.90;;;;;;8237227;28;20041;-81
2023/02/01 02:33:02;;;;;;;6.70;3.08;;;1.70;99.90;;;;;;8246788;28;20077;-80
2023/02/01 02:37:30;;;;;;;4.13;2.25;;;1.60;99.90;;;;;;8239705;28;20022;-81
2023/02/01 02:55:28;;;;;;;4.85;2.88;;;1.80;99.90;;;;;;8246260;28;20037;-81
2023/02/01 03:04:08;;;;;;;3.72;2.30;;;2.00;99.90;;;;;;8248395;28;20033;-81
2023/02/01 03:08:17;;;;;;;3.70;2.63;;;2.00;99.90;;;;;;8220228;28;20081;-80
2023/02/01 03:16:58;;;;;;;5.53;2.83;;;2.20;99.90;;;;;;8265412;28;20026;-80
2023/02/01 03:21:03;;;;;;;5.78;3.28;;;2.30;99.90;;;;;;8218925;28;20270;-80
2023/02/01 03:25:20;;;;;;;5.22;2.60;;;2.40;99.90;;;;;;8223860;28;20033;-80
2023/02/01 03:29:40;;;;;;;4.25;2.42;;;2.30;99.90;;;;;;8235489;28;20395;-80
2023/02/01 03:33:41;;;;;;;6.10;2.72;;;2.50;99.90;;;;;;8252437;28;20085;-80
2023/02/01 03:37:42;;;;;;;7.28;2.97;;;2.60;99.90;;;;;;8242001;28;20625;-79
2023/02/01 03:41:45;;;;;;;5.60;3.13;;;2.60;99.90;;;;;;8234424;28;20106;-80
2023/02/01 03:45:57;;;;;;;7.38;2.78;;;2.70;99.90;;;;;;8246074;28;20034;-80
2023/02/01 03:50:25;;;;;;;5.55;3.15;;;2.60;99.90;;;;;;8230585;28;20114;-80
2023/02/01 03:54:27;;;;;;;9.27;2.75;;;2.70;99.90;;;;;;8221794;28;20220;-81
2023/02/01 03:58:28;;;;;;;2.95;1.20;;;2.50;99.90;;;;;;8220254;28;20042;-79
2023/02/01 04:02:29;;;;;;;3.90;2.88;;;2.60;99.90;;;;;;8242215;28;20033;-80
2023/02/01 04:06:29;;;;;;;5.70;2.60;;;2.60;99.90;;;;;;8214957;28;20033;-81
2023/02/01 04:10:30;;;;;;;5.18;3.20;;;2.70;99.90;;;;;;8214875;28;20479;-80
2023/02/01 04:14:30;;;;;;;5.70;2.95;;;2.70;99.90;;;;;;8212827;28;20027;-80
2023/02/01 04:18:31;;;;;;;3.70;2.30;;;2.80;99.90;;;;;;8221006;28;20034;-80
2023/02/01 04:22:31;;;;;;;11.50;3.03;;;2.80;99.90;;;;;;8214774;28;20450;-81
2023/02/01 04:26:32;;;;;;;5.63;2.65;;;2.70;99.90;;;;;;8237981;28;20229;-81
2023/02/01 04:30:32;;;;;;;4.82;2.95;;;2.80;99.90;;;;;;8256985;28;20034;-81
2023/02/01 04:34:33;;;;;;;5.22;2.65;;;2.70;99.90;;;;;;8233233;28;20084;-80
2023/02/01 04:38:34;;;;;;;5.32;2.83;;;2.70;99.90;;;;;;8228119;28;20058;-81
2023/02/01 04:42:34;;;;;;;3.78;2.13;;;2.60;99.90;;;;;;8227250;28;20033;-80
2023/02/01 04:46:35;;;;;;;4.80;2.72;;;2.60;99.90;;;;;;8241140;28;20022;-81
2023/02/01 04:50:35;;;;;;;4.40;2.75;;;2.60;99.90;;;;;;8221235;28;20019;-80
2023/02/01 04:54:36;;;;;;;4.63;2.83;;;2.60;99.90;;;;;;8236097;28;20052;-80
2023/02/01 04:58:36;;;;;;;6.78;3.20;;;2.60;99.90;;;;;;8253201;28;20027;-81
2023/02/01 05:02:37;;;;;;;4.90;2.97;;;2.60;99.90;;;;;;8235049;28;20105;-81
2023/02/01 05:06:38;;;;;;;5.53;2.70;;;2.70;99.90;;;;;;8218241;28;20158;-80
2023/02/01 05:10:38;;;;;;;4.88;2.85;;;2.70;99.90;;;;;;8219984;28;20023;-80
2023/02/01 05:14:39;;;;;;;5.65;2.65;;;2.80;99.90;;;;;;8208627;28;20058;-81
2023/02/01 05:18:39;;;;;;;5.75;2.75;;;2.80;99.90;;;;;;8204269;28;20037;-80
2023/02/01 05:22:41;;;;;;;8.63;3.45;;;2.80;99.90;;;;;;8228021;28;20114;-80
2023/02/01 05:26:42;;;;;;;5.32;2.40;;;2.90;99.90;;;;;;8226489;28;20037;-81
2023/02/01 05:30:43;;;;;;;8.38;3.58;;;2.80;99.90;;;;;;8233440;28;20050;-80
2023/02/01 05:34:43;;;;;;;9.55;3.95;;;2.80;99.90;;;;;;8234669;28;20069;-82
2023/02/01 05:38:44;;;;;;;6.32;2.80;;;2.80;99.90;;;;;;8233528;28;20031;-81
2023/02/01 05:42:45;;;;;;;7.65;3.88;;;2.90;99.90;;;;;;8232374;28;20055;-81
2023/02/01 05:46:45;;;;;;;15.45;5.90;;;2.80;99.90;;;;;;8227676;28;20332;-81
2023/02/01 05:50:46;;;;;;;5.55;3.40;;;2.80;99.90;;;;;;8233540;28;20034;-81
2023/02/01 05:54:47;;;;;;;7.05;2.90;;;2.80;99.90;;;;;;8252886;28;20463;-81
2023/02/01 05:58:47;;;;;;;5.47;3.45;;;2.60;99.90;;;;;;8246429;28;20022;-81
2023/02/01 06:02:48;;;;;;;6.03;3.00;;;2.60;99.90;;;;;;8225074;28;20033;-80
2023/02/01 06:06:50;;;;;;;4.38;2.35;;;2.50;99.90;;;;;;8220245;28;20049;-81
2023/02/01 06:10:57;;;;;;;5.97;2.85;;;2.50;99.90;;;;;;8218654;28;20046;-80
2023/02/01 06:14:58;;;;;;;6.88;2.78;;;2.40;99.90;;;;;;8244071;28;20037;-81
2023/02/01 06:18:59;;;;;;;4.22;1.92;;;2.50;99.90;;;;;;8218937;28;20019;-80
2023/02/01 06:22:59;;;;;;;5.93;2.60;;;2.50;99.90;;;;;;8219344;28;20626;-81
2023/02/01 06:27:00;;;;;;;5.13;2.88;;;2.60;99.90;;;;;;8251189;28;20035;-81
2023/02/01 06:31:07;;;;;;;7.05;3.25;;;2.60;99.90;;;;;;8245510;28;20029;-82
2023/02/01 06:35:11;;;;;;;2.65;1.85;;;2.50;99.90;;;;;;8231242;28;20447;-82
2023/02/01 06:39:15;;;;;;;4.65;2.30;;;2.60;99.90;;;;;;8234394;28;20030;-81
2023/02/01 06:43:16;;;;;;;3.50;1.65;;;2.70;99.90;;;;;;8242335;28;20030;-80
2023/02/01 06:47:16;;;;;;;6.82;3.00;;;2.70;99.90;;;;;;8258792;28;20029;-82
2023/02/01 06:51:25;;;;;;;4.97;2.88;;;2.70;99.90;;;;;;8244849;28;20065;-81
2023/02/01 06:55:26;;;;;;;4.33;2.67;;;2.70;99.90;;;;;;8230038;28;20546;-81
2023/02/01 06:59:26;;;;;;;6.90;3.63;;;2.70;99.90;;;;;;8238628;28;20270;-81
2023/02/01 07:03:27;;;;;;;8.93;4.10;;;2.70;99.90;;;;;;8247749;28;20062;-80
2023/02/01 07:07:27;;;;;;;6.13;3.63;;;2.70;99.90;;;;;;8236784;28;20507;-80
2023/02/01 07:11:28;;;;;;;7.55;3.72;;;2.60;99.90;;;;;;8218418;28;20023;-81
2023/02/01 07:15:29;;;;;;;10.65;3.88;;;2.70;99.90;;;;;;8231218;28;20022;-81
2023/02/01 07:19:29;;;;;;;15.57;4.97;;;2.70;99.90;;;;;;8242506;28;20022;-81
2023/02/01 07:23:30;;;;;;;7.80;4.45;;;2.70;99.90;;;;;;8219083;28;20059;-80
2023/02/01 07:27:33;;;;;;;7.63;4.65;;;2.70;99.90;;;;;;8238543;28;20050;-81
2023/02/01 07:31:34;;;;;;;6.25;3.55;;;2.80;99.90;;;;;;8242699;28;20054;-80
2023/02/01 07:35:34;;;;;;;6.85;3.88;;;2.80;99.90;;;;;;8237642;28;20049;-80
2023/02/01 07:39:35;;;;;;;8.85;4.38;;;2.90;99.90;;;;;;8247149;28;20036;-80
2023/02/01 07:43:35;;;;;;;5.55;3.17;;;2.90;99.90;;;;;;8230083;28;20078;-80
2023/02/01 07:47:36;;;;;;;7.43;4.00;;;2.90;99.90;;;;;;8243292;28;20018;-80
2023/02/01 07:51:36;;;;;;;8.27;5.13;;;2.90;99.90;;;;;;8243290;28;20088;-80
2023/02/01 07:55:38;;;;;;;10.05;4.50;;;2.90;99.90;;;;;;8239980;28;20109;-79
2023/02/01 08:01:19;;;;;;;7.18;3.42;;;2.80;99.90;;;;;;8228171;28;20027;-80
2023/02/01 08:04:01;;;;;;;7.63;4.53;;;2.90;99.90;;;;;;8231447;28;20442;-81
2023/02/01 08:08:02;;;;;;;6.00;2.63;;;2.90;99.90;;;;;;8223221;28;20410;-80
2023/02/01 08:12:03;;;;;;;6.65;2.88;;;3.00;99.90;;;;;;8215940;28;20026;-79
2023/02/01 08:16:06;;;;;;;8.35;4.28;;;3.00;99.90;;;;;;8216177;28;20030;-81
2023/02/01 08:20:07;;;;;;;8.43;3.03;;;3.10;99.90;;;;;;8223965;28;20109;-80
2023/02/01 08:24:09;;;;;;;6.10;3.45;;;3.10;99.90;;;;;;8224595;28;20019;-79
2023/02/01 08:28:10;;;;;;;6.13;3.75;;;3.10;99.90;;;;;;8233231;28;20084;-80
2023/02/01 08:32:11;;;;;;;6.15;2.95;;;3.10;99.90;;;;;;8240511;28;20598;-80
2023/02/01 08:36:11;;;;;;;4.78;2.28;;;3.30;99.90;;;;;;8239582;28;20027;-80
2023/02/01 08:40:13;;;;;;;4.22;2.25;;;3.30;99.90;;;;;;8233198;28;20178;-81
2023/02/01 08:44:14;;;;;;;7.78;3.55;;;3.30;99.90;;;;;;8234393;28;20029;-80
2023/02/01 08:48:14;;;;;;;5.93;2.90;;;3.40;99.90;;;;;;8256586;28;20023;-81
2023/02/01 08:52:16;;;;;;;6.82;3.13;;;3.40;99.90;;;;;;8238096;28;20043;-80
2023/02/01 08:56:18;;;;;;;8.00;3.05;;;3.30;99.90;;;;;;8232703;28;20027;-80
2023/02/01 09:00:19;;;;;;;5.93;2.90;;;3.30;99.90;;;;;;8234967;28;20042;-80
2023/02/01 09:04:19;;;;;;;5.15;3.13;;;3.40;99.90;;;;;;8218824;28;20022;-81
2023/02/01 09:08:20;;;;;;;8.32;3.03;;;3.40;99.90;;;;;;8218925;28;20072;-80
2023/02/01 09:12:21;;;;;;;7.75;3.65;;;3.30;99.90;;;;;;8244002;28;20511;-81
2023/02/01 09:16:21;;;;;;;5.97;2.50;;;3.40;99.90;;;;;;8245367;28;20026;-80
2023/02/01 09:20:23;;;;;;;6.43;3.03;;;3.40;99.90;;;;;;8235971;28;20055;-80
2023/02/01 09:24:24;;;;;;;5.10;2.63;;;3.50;99.90;;;;;;8223266;28;20024;-80
2023/02/01 09:28:25;;;;;;;4.70;3.08;;;3.60;99.90;;;;;;8233600;28;20022;-81
2023/02/01 09:32:25;;;;;;;5.22;2.38;;;3.50;99.90;;;;;;8228421;28;20018;-80
2023/02/01 09:36:26;;;;;;;6.40;2.70;;;3.70;99.90;;;;;;8240068;28;20019;-79
2023/02/01 09:40:27;;;;;;;5.60;2.95;;;3.70;99.90;;;;;;8230956;28;20454;-81
2023/02/01 09:44:51;;;;;;;4.35;2.92;;;3.70;99.90;;;;;;8233296;28;20022;-81
2023/02/01 09:48:55;;;;;;;4.53;2.38;;;3.80;99.90;;;;;;8251711;28;20487;-80
2023/02/01 09:53:18;;;;;;;9.52;4.47;;;4.00;99.90;;;;;;8251234;28;20022;-81
2023/02/01 09:57:33;;;;;;;6.35;3.40;;;4.30;99.90;;;;;;8251815;28;20033;-80
2023/02/01 10:01:35;;;;;;;7.05;2.30;;;4.60;99.90;;;;;;8225561;28;20050;-80
2023/02/01 10:05:46;;;;;;;5.75;2.42;;;4.40;99.90;;;;;;8213752;28;20050;-81
2023/02/01 10:10:10;;;;;;;1.92;1.08;;;4.30;99.90;;;;;;8245387;28;20015;-80
2023/02/01 10:14:30;;;;;;;6.88;3.72;;;4.30;99.90;;;;;;8218118;28;20038;-81
2023/02/01 10:19:04;;;;;;;5.78;3.25;;;4.50;99.90;;;;;;8213590;28;20483;-80
2023/02/01 10:23:10;;;;;;;6.18;3.40;;;4.50;99.90;;;;;;8236509;28;20034;-80
2023/02/01 10:27:21;;;;;;;4.88;2.65;;;4.20;99.90;;;;;;8257849;28;20089;-79
2023/02/01 10:31:26;;;;;;;5.90;3.20;;;4.10;99.90;;;;;;8236089;28;20018;-79
2023/02/01 10:35:36;;;;;;;6.40;2.92;;;4.00;99.90;;;;;;8245783;28;20026;-79
2023/02/01 10:39:36;;;;;;;;;;;3.90;99.90;;;;;;8256354;28;20018;-80
2023/02/01 10:43:39;;;;;;;4.65;2.85;;;4.10;99.90;;;;;;8226401;28;19973;-79
2023/02/01 10:47:39;;;;;;;8.30;3.83;;;4.50;99.90;;;;;;8256248;28;20019;-80
2023/02/01 10:51:40;;;;;;;10.55;5.38;;;4.90;99.90;;;;;;8242277;28;20022;-80
2023/02/01 10:55:51;;;;;;;6.95;4.03;;;5.70;99.90;;;;;;8258142;28;20077;-81
2023/02/01 10:59:52;;;;;;;3.30;1.83;;;5.90;99.90;;;;;;8250688;28;20029;-79
2023/02/01 11:03:57;;;;;;;3.90;2.15;;;5.90;99.90;;;;;;8240122;28;20034;-80
2023/02/01 11:08:00;;;;;;;6.30;3.25;;;5.50;99.90;;;;;;8219026;28;20042;-80
2023/02/01 11:12:00;;;;;;;6.45;3.25;;;5.40;99.90;;;;;;8249451;28;20023;-81
2023/02/01 11:16:03;;;;;;;6.78;3.22;;;5.40;99.90;;;;;;8249042;28;20503;-81
2023/02/01 11:20:12;;;;;;;7.88;3.75;;;5.20;99.90;;;;;;8243940;28;20023;-80
2023/02/01 11:24:29;;;;;;;5.70;3.28;;;5.20;99.90;;;;;;8221390;28;20019;-80
2023/02/01 11:28:35;;;;;;;8.70;3.60;;;5.00;99.90;;;;;;8233600;28;20033;-80
2023/02/01 11:32:38;;;;;;;5.90;3.03;;;5.00;99.90;;;;;;8242449;28;20608;-79
2023/02/01 11:36:39;;;;;;;4.82;3.00;;;4.80;99.90;;;;;;8239336;28;20023;-80
2023/02/01 11:40:40;;;;;;;2.63;1.58;;;4.70;99.90;;;;;;8229908;28;20510;-80
2023/02/01 11:44:46;;;;;;;11.27;2.67;;;4.80;99.90;;;;;;8224702;28;20023;-80
2023/02/01 11:48:47;;;;;;;5.00;2.30;;;4.90;99.90;;;;;;8249373;28;20419;-80
2023/02/01 11:53:22;;;;;;;4.35;2.60;;;4.90;99.90;;;;;;8236638;28;20027;-80
2023/02/01 11:57:35;;;;;;;4.15;2.85;;;4.80;99.90;;;;;;8238440;28;20379;-81
2023/02/01 12:01:38;;;;;;;6.80;3.58;;;5.00;99.90;;;;;;8255030;28;20113;-80
2023/02/01 12:05:44;;;;;;;5.07;3.25;;;5.00;99.90;;;;;;8248916;28;20034;-80
2023/02/01 12:10:09;;;;;;;6.25;3.25;;;5.20;99.90;;;;;;8233669;28;20113;-78
2023/02/01 12:14:48;;;;;;;5.55;2.17;;;5.20;99.90;;;;;;8234522;28;20023;-80
2023/02/01 12:18:57;;;;;;;4.00;2.55;;;5.00;99.90;;;;;;8240407;28;20031;-80
2023/02/01 12:23:18;;;;;;;5.68;2.40;;;4.80;99.90;;;;;;8216941;28;20027;-80
2023/02/01 12:27:18;;;;;;;4.57;2.40;;;5.10;99.90;;;;;;8244136;28;20165;-80
2023/02/01 12:31:42;;;;;;;4.65;2.58;;;5.20;99.90;;;;;;8236452;28;20027;-80
2023/02/01 12:36:06;;;;;;;1.50;1.02;;;5.00;99.90;;;;;;8212862;28;20056;-80
2023/02/01 12:40:32;;;;;;;4.45;2.17;;;4.80;99.90;;;;;;8223777;28;20049;-80
2023/02/01 12:44:56;;;;;;;3.17;1.85;;;4.60;99.90;;;;;;8232703;28;20116;-80
2023/02/01 12:49:02;;;;;;;8.50;2.95;;;4.50;99.90;;;;;;8228719;28;20022;-80
2023/02/01 12:53:29;;;;;;;3.72;2.20;;;4.50;99.90;;;;;;8233648;28;20411;-80
2023/02/01 12:57:40;;;;;;;2.67;0.93;;;4.50;99.90;;;;;;8224926;28;20022;-80
2023/02/01 13:01:48;;;;;;;4.00;2.33;;;4.50;99.90;;;;;;8223190;28;20078;-80
2023/02/01 13:05:54;;;;;;;5.15;2.28;;;4.50;99.90;;;;;;8230633;28;20082;-80
2023/02/01 13:10:05;;;;;;;3.30;2.05;;;4.50;99.90;;;;;;8214623;28;20026;-79
2023/02/01 13:14:15;;;;;;;4.40;2.03;;;4.60;99.90;;;;;;8229334;28;20022;-81
2023/02/01 13:18:20;;;;;;;5.75;2.42;;;4.60;99.90;;;;;;8235741;28;20457;-80
2023/02/01 13:22:26;;;;;;;2.47;1.33;;;4.60;99.90;;;;;;8214315;28;20537;-80
2023/02/01 13:26:27;;;;;;;4.55;2.35;;;4.70;99.90;;;;;;8237568;28;20053;-80
2023/02/01 13:30:59;;;;;;;4.70;2.70;;;4.50;99.90;;;;;;8258113;28;20023;-79
2023/02/01 13:35:24;;;;;;;3.38;2.33;;;4.50;99.90;;;;;;8257398;28;20056;-80
2023/02/01 13:39:37;;;;;;;6.93;1.63;;;4.30;99.90;;;;;;8255024;28;20027;-80
2023/02/01 13:43:41;;;;;;;4.13;1.45;;;3.90;99.90;;;;;;8256811;28;20471;-79
2023/02/01 13:47:45;;;;;;;5.55;2.33;;;3.40;99.90;;;;;;8225707;28;20023;-80
2023/02/01 13:51:50;;;;;;;4.28;2.08;;;3.30;99.90;;;;;;8248936;28;20490;-78
2023/02/01 13:56:00;;;;;;;3.78;2.25;;;3.40;99.90;;;;;;8230834;28;20394;-78
2023/02/01 14:00:19;;;;;;;;;;;3.40;99.90;;;;;;8234010;28;20027;-79
2023/02/01 14:04:50;;;;;;;5.57;2.35;;;3.30;99.90;;;;;;8243190;28;20152;-78
2023/02/01 14:09:09;;;;;;;3.58;1.98;;;3.10;99.90;;;;;;8219104;28;20018;-79
2023/02/01 14:13:23;;;;;;;2.65;1.67;;;2.90;99.90;;;;;;8241902;28;20038;-79
2023/02/01 14:17:32;;;;;;;10.35;1.75;;;2.90;99.90;;;;;;8225509;28;20506;-78
2023/02/01 14:21:37;;;;;;;2.22;1.17;;;3.00;99.90;;;;;;8236398;28;20053;-79
2023/02/01 14:25:37;;;;;;;1.90;1.25;;;3.00;99.90;;;;;;8224362;28;20042;-79
2023/02/01 14:29:41;;;;;;;1.52;0.90;;;3.00;99.90;;;;;;8249805;28;20542;-78
2023/02/01 14:33:42;;;;;;;5.68;1.55;;;3.00;99.90;;;;;;8230956;28;20446;-79
2023/02/01 14:37:44;;;;;;;7.28;1.75;;;3.10;99.90;;;;;;8261911;28;20545;-78
2023/02/01 14:41:47;;;;;;;3.15;1.52;;;3.20;99.90;;;;;;8238750;28;20023;-79
2023/02/01 14:45:50;;;;;;;2.72;1.67;;;3.40;99.90;;;;;;8242630;28;20117;-78
2023/02/01 14:50:10;;;;;;;1.50;0.68;;;3.20;99.90;;;;;;8243736;28;20033;-77
2023/02/01 14:54:13;;;;;;;5.20;1.30;;;3.30;99.90;;;;;;8247098;28;20026;-78
2023/02/01 14:58:30;;;;;;;5.03;2.28;;;3.20;99.90;;;;;;8234769;28;20029;-79
2023/02/01 15:02:35;;;;;;;3.35;1.80;;;3.20;99.90;;;;;;8252358;28;20411;-78
2023/02/01 15:06:38;;;;;;;3.35;1.80;;;3.20;99.90;;;;;;8235445;28;20019;-77
2023/02/01 15:10:44;;;;;;;1.95;1.50;;;3.30;99.90;;;;;;8253148;28;20027;-78
2023/02/01 15:14:50;;;;;;;5.03;2.38;;;3.30;99.90;;;;;;8225320;28;20022;-77
2023/02/01 15:19:07;;;;;;;3.28;1.73;;;3.30;99.90;;;;;;8217721;28;20222;-79
2023/02/01 15:23:17;;;;;;;5.47;1.60;;;3.30;99.90;;;;;;8221079;28;20081;-78
2023/02/01 15:27:17;;;;;;;;;;;3.40;99.90;;;;;;8232450;28;20135;-77
2023/02/01 15:31:33;;;;;;;1.58;1.42;;;3.50;99.90;;;;;;8231834;28;19906;-78
2023/02/01 15:35:43;;;;;;;14.93;7.55;;;3.50;99.90;;;;;;8236843;28;20022;-78
2023/02/01 15:40:02;;;;;;;;;;;3.40;99.90;;;;;;8260329;28;20030;-79
2023/02/01 15:44:19;;;;;;;3.33;1.70;;;3.50;99.90;;;;;;8234862;28;19971;-79
2023/02/01 15:48:23;;;;;;;9.80;2.45;;;3.70;99.90;;;;;;8239008;28;20466;-78
2023/02/01 15:52:36;;;;;;;4.13;2.60;;;3.60;99.90;;;;;;8242991;28;20026;-78
2023/02/01 15:56:40;;;;;;;4.32;2.47;;;3.60;99.90;;;;;;8249911;28;20019;-79
2023/02/01 16:00:48;;;;;;;6.07;2.35;;;3.60;99.90;;;;;;8231115;28;20495;-79
2023/02/01 16:04:51;;;;;;;8.18;1.75;;;3.70;99.90;;;;;;8237250;28;20022;-79
2023/02/01 16:09:01;;;;;;;1.90;0.88;;;3.80;99.90;;;;;;8234265;28;20054;-78
2023/02/01 16:13:02;;;;;;;6.25;2.42;;;3.80;99.90;;;;;;8210186;28;20201;-80
2023/02/01 16:17:02;;;;;;;5.47;1.95;;;3.80;99.90;;;;;;8216534;28;20108;-79
2023/02/01 16:21:03;;;;;;;10.00;2.20;;;3.80;99.90;;;;;;8228873;28;20022;-79
2023/02/01 16:25:04;;;;;;;3.65;1.83;;;3.70;99.90;;;;;;8222641;28;20113;-79
2023/02/01 16:29:06;;;;;;;7.90;2.03;;;3.80;99.90;;;;;;8243256;28;20058;-79
2023/02/01 16:33:15;;;;;;;9.27;2.20;;;3.80;99.90;;;;;;8232540;28;20022;-79
2023/02/01 16:37:20;;;;;;;10.05;2.20;;;3.70;99.90;;;;;;8244904;28;20034;-79
2023/02/01 16:41:22;;;;;;;3.83;1.80;;;3.80;99.90;;;;;;8227202;28;20037;-79
2023/02/01 16:45:23;;;;;;;6.95;1.60;;;3.80;99.90;;;;;;8230001;28;20034;-78
2023/02/01 16:49:24;;;;;;;7.32;1.75;;;3.80;99.90;;;;;;8214267;28;20034;-79
2023/02/01 16:53:30;;;;;;;5.35;2.22;;;3.80;99.90;;;;;;8208180;28;20085;-78
2023/02/01 16:57:30;;;;;;;2.30;1.02;;;3.70;99.90;;;;;;8223340;28;20026;-79
2023/02/01 17:01:31;;;;;;;1.40;0.93;;;3.80;99.90;;;;;;8203584;28;20549;-78
2023/02/01 17:05:33;;;;;;;6.15;1.77;;;3.80;99.90;;;;;;8229904;28;20023;-80
2023/02/01 17:09:37;;;;;;;2.22;1.13;;;3.80;99.90;;;;;;8228208;28;20030;-79
2023/02/01 17:13:38;;;;;;;8.55;2.90;;;3.80;99.90;;;;;;8227319;28;20026;-78
2023/02/01 17:17:41;;;;;;;7.85;2.00;;;3.80;99.90;;;;;;8207835;28;20030;-80
2023/02/01 17:22:02;;;;;;;5.43;1.60;;;3.80;99.90;;;;;;8207305;28;20451;-80
2023/02/01 17:26:03;;;;;;;2.60;1.42;;;3.80;99.90;;;;;;8214595;28;20427;-79
2023/02/01 17:30:04;;;;;;;5.13;1.77;;;3.90;99.90;;;;;;8224052;28;20050;-78
2023/02/01 17:34:06;;;;;;;9.23;1.95;;;3.90;99.90;;;;;;8229032;28;20053;-79
2023/02/01 17:38:11;;;;;;;2.67;1.50;;;3.90;99.90;;;;;;8238861;28;20046;-81
2023/02/01 17:42:12;;;;;;;7.97;2.33;;;3.90;99.90;;;;;;8224756;28;20046;-80
2023/02/01 17:46:15;;;;;;;4.88;2.35;;;3.70;99.90;;;;;;8224680;28;20030;-78
2023/02/01 17:50:16;;;;;;;5.82;1.45;;;3.70;99.90;;;;;;8210213;28;20027;-78
2023/02/01 17:54:18;;;;;;;7.20;1.55;;;3.80;99.90;;;;;;8218443;28;20048;-80
2023/02/01 17:58:20;;;;;;;7.43;1.85;;;3.90;99.90;;;;;;8227576;28;21145;-79
2023/02/01 18:02:22;;;;;;;8.18;1.85;;;3.70;99.90;;;;;;8218649;28;20110;-79
2023/02/01 18:06:25;;;;;;;9.88;3.60;;;3.80;99.90;;;;;;8229582;28;20058;-78
2023/02/01 18:10:26;;;;;;;8.32;2.05;;;3.80;99.90;;;;;;8205235;28;20023;-79
2023/02/01 18:14:26;;;;;;;5.75;2.08;;;3.70;99.90;;;;;;8203438;28;20042;-78
2023/02/01 18:18:29;;;;;;;5.45;2.50;;;3.80;99.90;;;;;;8218690;28;20512;-80
2023/02/01 18:22:30;;;;;;;5.43;1.95;;;3.70;99.90;;;;;;8204699;28;20023;-81
2023/02/01 18:26:30;;;;;;;3.53;1.33;;;3.70;99.90;;;;;;8202059;28;20047;-80
2023/02/01 18:30:33;;;;;;;6.22;1.98;;;3.80;99.90;;;;;;8224268;28;20071;-80
2023/02/01 18:34:33;;;;;;;4.85;1.23;;;3.70;99.90;;;;;;8234846;28;20035;-79
2023/02/01 18:38:34;;;;;;;9.00;2.20;;;3.80;99.90;;;;;;8211795;28;20614;-81
2023/02/01 18:42:34;;;;;;;7.00;1.90;;;3.80;99.90;;;;;;8206487;28;20061;-79
2023/02/01 18:46:35;;;;;;;5.18;1.67;;;3.70;99.90;;;;;;8226393;28;20035;-81
2023/02/01 18:50:38;;;;;;;10.05;2.72;;;3.80;99.90;;;;;;8206151;28;20027;-81
2023/02/01 18:54:38;;;;;;;5.13;2.10;;;3.80;99.90;;;;;;8209953;28;20039;-81
2023/02/01 18:58:39;;;;;;;3.03;1.50;;;3.70;99.90;;;;;;8227659;28;20098;-79
2023/02/01 19:02:40;;;;;;;3.83;1.95;;;3.70;99.90;;;;;;8218495;28;20079;-79
2023/02/01 19:06:41;;;;;;;11.38;2.67;;;3.70;99.90;;;;;;8207844;28;20029;-81
2023/02/01 19:10:41;;;;;;;7.10;1.92;;;3.70;99.90;;;;;;8218039;28;20105;-79
2023/02/01 19:14:43;;;;;;;3.60;1.55;;;3.70;99.90;;;;;;8256716;28;20050;-80
2023/02/01 19:18:43;;;;;;;4.18;1.63;;;3.60;99.90;;;;;;8216483;28;20034;-80
2023/02/01 19:22:45;;;;;;;2.97;1.42;;;3.70;99.90;;;;;;8220391;28;20023;-80
2023/02/01 19:26:47;;;;;;;7.15;2.65;;;3.70;99.90;;;;;;8212862;28;20077;-79
2023/02/01 19:30:48;;;;;;;16.05;2.30;;;3.70;99.90;;;;;;8224974;28;20047;-79
2023/02/01 19:34:49;;;;;;;16.55;1.05;;;3.60;99.90;;;;;;8245880;28;20471;-78
2023/02/01 19:38:49;;;;;;;5.57;1.63;;;3.70;99.90;;;;;;8232842;28;20130;-80
2023/02/01 19:42:50;;;;;;;5.00;1.30;;;3.70;99.90;;;;;;8231966;28;20147;-80
2023/02/01 19:46:50;;;;;;;4.30;2.00;;;3.80;99.90;;;;;;8220177;28;20035;-80
2023/02/01 19:50:51;;;;;;;9.68;2.20;;;3.80;99.90;;;;;;8217944;28;20034;-80
2023/02/01 19:54:51;;;;;;;4.20;1.42;;;3.80;99.90;;;;;;8202206;28;20126;-81
2023/02/01 19:58:54;;;;;;;4.25;1.13;;;3.70;99.90;;;;;;8216369;28;20043;-80
2023/02/01 20:02:54;;;;;;;4.72;1.58;;;3.70;99.90;;;;;;8211653;28;20030;-80
2023/02/01 20:06:55;;;;;;;5.10;1.92;;;3.80;99.90;;;;;;8213591;28;20546;-78
2023/02/01 20:10:57;;;;;;;5.28;2.00;;;3.80;99.90;;;;;;8207316;28;20673;-80
2023/02/01 20:14:57;;;;;;;6.53;1.50;;;3.70;99.90;;;;;;8205108;28;20031;-81
2023/02/01 20:18:58;;;;;;;8.05;1.00;;;3.70;99.90;;;;;;8218039;28;20046;-80
2023/02/01 20:22:58;;;;;;;6.80;1.35;;;3.70;99.90;;;;;;8220231;28;20031;-80
2023/02/01 20:26:59;;;;;;;1.27;0.63;;;3.70;99.90;;;;;;8230287;28;20049;-79
2023/02/01 20:31:00;;;;;;;3.85;2.17;;;3.70;99.90;;;;;;8236185;28;20501;-80
2023/02/01 20:35:00;;;;;;;10.60;1.23;;;3.70;99.90;;;;;;8232570;28;20035;-79
2023/02/01 20:39:01;;;;;;;9.43;2.50;;;3.70;99.90;;;;;;8254593;28;20505;-79
2023/02/01 20:43:02;;;;;;;3.92;1.20;;;3.70;99.90;;;;;;8229559;28;20038;-80
2023/02/01 20:47:04;;;;;;;4.30;1.55;;;3.70;99.90;;;;;;8237133;28;20073;-78
2023/02/01 20:51:04;;;;;;;2.58;1.23;;;3.70;99.90;;;;;;8234961;28;20030;-81
2023/02/01 20:55:05;;;;;;;5.45;1.20;;;3.60;99.90;;;;;;8218904;28;20027;-80
2023/02/01 20:59:10;;;;;;;0.75;0.75;;;3.70;99.90;;;;;;8232986;28;20030;-80
2023/02/01 21:03:12;;;;;;;4.80;1.25;;;3.70;99.90;;;;;;8213896;28;20030;-80
2023/02/01 21:07:13;;;;;;;3.30;1.10;;;3.70;99.90;;;;;;8210286;28;20018;-78
2023/02/01 21:11:14;;;;;;;2.15;1.23;;;3.70;99.90;;;;;;8230478;28;20092;-80
2023/02/01 21:15:15;;;;;;;3.78;1.58;;;3.70;99.90;;;;;;8214297;28;20626;-80
2023/02/01 21:19:16;;;;;;;3.80;0.90;;;3.70;99.90;;;;;;8208787;28;20081;-80
2023/02/01 21:23:17;;;;;;;2.60;1.08;;;3.70;99.90;;;;;;8217429;28;20027;-80
2023/02/01 21:31:24;;;;;;;3.47;1.52;;;3.70;99.90;;;;;;8239376;28;20145;-80
2023/02/01 21:35:24;;;;;;;1.13;0.63;;;3.70;99.90;;;;;;8234205;28;20030;-78
2023/02/01 21:39:28;;;;;;;5.18;1.60;;;3.70;99.90;;;;;;8232378;28;20031;-79
2023/02/01 21:43:28;;;;;;;2.15;1.10;;;3.70;99.90;;;;;;8233769;28;20519;-78
2023/02/01 21:47:29;;;;;;;5.18;1.33;;;3.80;99.90;;;;;;8232662;28;20131;-79
2023/02/01 21:51:29;;;;;;;3.72;1.45;;;3.70;99.90;;;;;;8232225;28;20561;-80
2023/02/01 21:55:30;;;;;;;2.80;1.02;;;3.60;99.90;;;;;;8231959;28;20122;-79
2023/02/01 21:59:30;;;;;;;9.27;1.60;;;3.70;99.90;;;;;;8231423;28;20475;-79